sensor_id;sensor_type;location;lat;lon;timestamp;temperature;humidity
67817;DHT22;54614;47.576;7.524;2023-12-22T00:02:08;22.00;54.30
67817;DHT22;54614;47.576;7.524;2023-12-22T00:04:34;22.00;54.20
67817;DHT22;54614;47.576;7.524;2023-12-22T00:06:59;22.00;54.20
67817;DHT22;54614;47.576;7.524;2023-12-22T00:09:25;22.00;54.20
67817;DHT22;54614;47.576;7.524;2023-12-22T00:11:51;22.00;54.20
67817;DHT22;54614;47.576;7.524;2023-12-22T00:14:17;22.00;54.20
67817;DHT22;54614;47.576;7.524;2023-12-22T00:16:42;22.00;54.20
67817;DHT22;54614;47.576;7.524;2023-12-22T00:19:08;21.90;54.10
67817;DHT22;54614;47.576;7.524;2023-12-22T00:21:34;21.90;54.10
67817;DHT22;54614;47.576;7.524;2023-12-22T00:24:00;22.00;54.10
67817;DHT22;54614;47.576;7.524;2023-12-22T00:26:26;21.90;54.10
67817;DHT22;54614;47.576;7.524;2023-12-22T00:28:51;21.90;54.10
67817;DHT22;54614;47.576;7.524;2023-12-22T00:31:17;21.90;54.10
67817;DHT22;54614;47.576;7.524;2023-12-22T00:33:43;21.90;54.10
67817;DHT22;54614;47.576;7.524;2023-12-22T00:36:09;21.90;54.10
67817;DHT22;54614;47.576;7.524;2023-12-22T00:38:35;21.90;54.10
67817;DHT22;54614;47.576;7.524;2023-12-22T00:41:01;21.90;54.10
67817;DHT22;54614;47.576;7.524;2023-12-22T00:43:26;21.90;54.10
67817;DHT22;54614;47.576;7.524;2023-12-22T00:45:52;21.90;54.10
67817;DHT22;54614;47.576;7.524;2023-12-22T00:48:18;21.90;54.10
67817;DHT22;54614;47.576;7.524;2023-12-22T00:50:44;21.90;54.10
67817;DHT22;54614;47.576;7.524;2023-12-22T00:53:09;21.90;54.00
67817;DHT22;54614;47.576;7.524;2023-12-22T00:55:35;21.90;54.00
67817;DHT22;54614;47.576;7.524;2023-12-22T00:58:01;21.80;53.90
67817;DHT22;54614;47.576;7.524;2023-12-22T01:00:27;21.80;53.90
67817;DHT22;54614;47.576;7.524;2023-12-22T01:02:52;21.80;53.90
67817;DHT22;54614;47.576;7.524;2023-12-22T01:05:18;21.80;53.90
67817;DHT22;54614;47.576;7.524;2023-12-22T01:07:44;21.80;53.80
67817;DHT22;54614;47.576;7.524;2023-12-22T01:10:09;21.80;53.90
67817;DHT22;54614;47.576;7.524;2023-12-22T01:12:36;21.80;53.90
67817;DHT22;54614;47.576;7.524;2023-12-22T01:15:02;21.80;53.90
67817;DHT22;54614;47.576;7.524;2023-12-22T01:17:28;21.80;53.80
67817;DHT22;54614;47.576;7.524;2023-12-22T01:19:53;21.80;53.80
67817;DHT22;54614;47.576;7.524;2023-12-22T01:22:19;21.80;53.90
67817;DHT22;54614;47.576;7.524;2023-12-22T01:24:45;21.80;53.80
67817;DHT22;54614;47.576;7.524;2023-12-22T01:27:11;21.80;53.80
67817;DHT22;54614;47.576;7.524;2023-12-22T01:29:37;21.80;54.50
67817;DHT22;54614;47.576;7.524;2023-12-22T01:32:03;21.80;53.90
67817;DHT22;54614;47.576;7.524;2023-12-22T01:34:30;21.80;53.80
67817;DHT22;54614;47.576;7.524;2023-12-22T01:36:55;21.80;53.80
67817;DHT22;54614;47.576;7.524;2023-12-22T01:39:21;21.80;53.80
67817;DHT22;54614;47.576;7.524;2023-12-22T01:41:47;21.80;53.80
67817;DHT22;54614;47.576;7.524;2023-12-22T01:44:13;21.70;53.80
67817;DHT22;54614;47.576;7.524;2023-12-22T01:46:39;21.70;53.80
67817;DHT22;54614;47.576;7.524;2023-12-22T01:49:05;21.70;53.80
67817;DHT22;54614;47.576;7.524;2023-12-22T01:51:34;21.80;54.60
67817;DHT22;54614;47.576;7.524;2023-12-22T01:54:05;21.80;54.20
67817;DHT22;54614;47.576;7.524;2023-12-22T01:56:32;21.80;54.00
67817;DHT22;54614;47.576;7.524;2023-12-22T01:59:00;21.80;54.00
67817;DHT22;54614;47.576;7.524;2023-12-22T02:01:28;21.80;54.10
67817;DHT22;54614;47.576;7.524;2023-12-22T02:03:54;21.70;54.00
67817;DHT22;54614;47.576;7.524;2023-12-22T02:06:21;21.70;54.00
67817;DHT22;54614;47.576;7.524;2023-12-22T02:08:47;21.80;54.00
67817;DHT22;54614;47.576;7.524;2023-12-22T02:11:14;21.80;54.00
67817;DHT22;54614;47.576;7.524;2023-12-22T02:13:41;21.70;53.90
67817;DHT22;54614;47.576;7.524;2023-12-22T02:16:35;21.70;53.90
67817;DHT22;54614;47.576;7.524;2023-12-22T02:22:05;21.70;53.70
67817;DHT22;54614;47.576;7.524;2023-12-22T02:24:32;21.70;53.60
67817;DHT22;54614;47.576;7.524;2023-12-22T02:29:51;21.70;53.40
67817;DHT22;54614;47.576;7.524;2023-12-22T02:32:27;21.70;53.30
67817;DHT22;54614;47.576;7.524;2023-12-22T02:35:09;21.70;53.30
67817;DHT22;54614;47.576;7.524;2023-12-22T02:37:39;21.70;53.20
67817;DHT22;54614;47.576;7.524;2023-12-22T02:40:07;21.70;53.30
67817;DHT22;54614;47.576;7.524;2023-12-22T02:42:36;21.70;53.30
67817;DHT22;54614;47.576;7.524;2023-12-22T02:45:04;21.60;53.20
67817;DHT22;54614;47.576;7.524;2023-12-22T02:47:31;21.70;53.30
67817;DHT22;54614;47.576;7.524;2023-12-22T02:49:58;21.60;53.30
67817;DHT22;54614;47.576;7.524;2023-12-22T02:52:24;21.60;53.40
67817;DHT22;54614;47.576;7.524;2023-12-22T02:54:50;21.60;53.30
67817;DHT22;54614;47.576;7.524;2023-12-22T02:57:16;21.60;53.30
67817;DHT22;54614;47.576;7.524;2023-12-22T02:59:42;21.60;53.30
67817;DHT22;54614;47.576;7.524;2023-12-22T03:02:07;21.60;53.40
67817;DHT22;54614;47.576;7.524;2023-12-22T03:04:33;21.60;53.30
67817;DHT22;54614;47.576;7.524;2023-12-22T03:06:59;21.60;53.30
67817;DHT22;54614;47.576;7.524;2023-12-22T03:09:25;21.60;53.40
67817;DHT22;54614;47.576;7.524;2023-12-22T03:11:50;21.60;53.40
67817;DHT22;54614;47.576;7.524;2023-12-22T03:14:20;21.60;53.40
67817;DHT22;54614;47.576;7.524;2023-12-22T03:16:45;21.60;53.40
67817;DHT22;54614;47.576;7.524;2023-12-22T03:19:11;21.60;53.50
67817;DHT22;54614;47.576;7.524;2023-12-22T03:21:37;21.60;53.40
67817;DHT22;54614;47.576;7.524;2023-12-22T03:24:03;21.60;53.40
67817;DHT22;54614;47.576;7.524;2023-12-22T03:26:28;21.60;53.40
67817;DHT22;54614;47.576;7.524;2023-12-22T03:28:54;21.60;53.40
67817;DHT22;54614;47.576;7.524;2023-12-22T03:31:20;21.60;53.40
67817;DHT22;54614;47.576;7.524;2023-12-22T03:33:46;21.60;53.40
67817;DHT22;54614;47.576;7.524;2023-12-22T03:36:11;21.60;53.40
67817;DHT22;54614;47.576;7.524;2023-12-22T03:38:37;21.60;53.40
67817;DHT22;54614;47.576;7.524;2023-12-22T03:41:03;21.60;53.40
67817;DHT22;54614;47.576;7.524;2023-12-22T03:43:29;21.60;53.40
67817;DHT22;54614;47.576;7.524;2023-12-22T03:45:56;21.60;53.50
67817;DHT22;54614;47.576;7.524;2023-12-22T03:48:22;21.60;53.40
67817;DHT22;54614;47.576;7.524;2023-12-22T03:50:48;21.60;53.40
67817;DHT22;54614;47.576;7.524;2023-12-22T03:53:14;21.60;53.40
67817;DHT22;54614;47.576;7.524;2023-12-22T03:55:39;21.60;53.30
67817;DHT22;54614;47.576;7.524;2023-12-22T03:58:06;21.60;53.40
67817;DHT22;54614;47.576;7.524;2023-12-22T04:00:33;21.50;53.30
67817;DHT22;54614;47.576;7.524;2023-12-22T04:02:59;21.60;53.40
67817;DHT22;54614;47.576;7.524;2023-12-22T04:05:25;21.60;53.40
67817;DHT22;54614;47.576;7.524;2023-12-22T04:07:51;21.60;53.40
67817;DHT22;54614;47.576;7.524;2023-12-22T04:10:17;21.60;53.40
67817;DHT22;54614;47.576;7.524;2023-12-22T04:12:43;21.60;53.30
67817;DHT22;54614;47.576;7.524;2023-12-22T04:15:09;21.60;53.30
67817;DHT22;54614;47.576;7.524;2023-12-22T04:17:35;21.60;53.40
67817;DHT22;54614;47.576;7.524;2023-12-22T04:20:01;21.50;53.40
67817;DHT22;54614;47.576;7.524;2023-12-22T04:22:27;21.50;53.40
67817;DHT22;54614;47.576;7.524;2023-12-22T04:24:53;21.50;53.30
67817;DHT22;54614;47.576;7.524;2023-12-22T04:27:18;21.60;53.40
67817;DHT22;54614;47.576;7.524;2023-12-22T04:29:44;21.50;53.30
67817;DHT22;54614;47.576;7.524;2023-12-22T04:32:10;21.60;53.30
67817;DHT22;54614;47.576;7.524;2023-12-22T04:34:36;21.50;53.30
67817;DHT22;54614;47.576;7.524;2023-12-22T04:37:01;21.50;53.30
67817;DHT22;54614;47.576;7.524;2023-12-22T04:39:29;21.50;53.40
67817;DHT22;54614;47.576;7.524;2023-12-22T04:41:55;21.50;53.40
67817;DHT22;54614;47.576;7.524;2023-12-22T04:44:21;21.50;53.40
67817;DHT22;54614;47.576;7.524;2023-12-22T04:46:47;21.50;53.40
67817;DHT22;54614;47.576;7.524;2023-12-22T04:49:12;21.50;53.30
67817;DHT22;54614;47.576;7.524;2023-12-22T04:51:38;21.50;53.30
67817;DHT22;54614;47.576;7.524;2023-12-22T04:54:10;21.50;53.30
67817;DHT22;54614;47.576;7.524;2023-12-22T04:56:36;21.50;53.30
67817;DHT22;54614;47.576;7.524;2023-12-22T04:59:02;21.50;53.30
67817;DHT22;54614;47.576;7.524;2023-12-22T05:01:28;21.50;53.30
67817;DHT22;54614;47.576;7.524;2023-12-22T05:03:53;21.50;53.30
67817;DHT22;54614;47.576;7.524;2023-12-22T05:06:19;21.50;53.30
67817;DHT22;54614;47.576;7.524;2023-12-22T05:08:45;21.50;53.30
67817;DHT22;54614;47.576;7.524;2023-12-22T05:11:12;21.50;53.30
67817;DHT22;54614;47.576;7.524;2023-12-22T05:13:38;21.50;53.30
67817;DHT22;54614;47.576;7.524;2023-12-22T05:16:04;21.50;53.20
67817;DHT22;54614;47.576;7.524;2023-12-22T05:18:30;21.50;53.20
67817;DHT22;54614;47.576;7.524;2023-12-22T05:20:55;21.50;53.20
67817;DHT22;54614;47.576;7.524;2023-12-22T05:23:21;21.50;53.80
67817;DHT22;54614;47.576;7.524;2023-12-22T05:25:48;21.50;53.20
67817;DHT22;54614;47.576;7.524;2023-12-22T05:28:14;21.50;53.20
67817;DHT22;54614;47.576;7.524;2023-12-22T05:30:39;21.50;53.20
67817;DHT22;54614;47.576;7.524;2023-12-22T05:33:05;21.50;53.20
67817;DHT22;54614;47.576;7.524;2023-12-22T05:35:31;21.50;53.10
67817;DHT22;54614;47.576;7.524;2023-12-22T05:37:56;21.50;53.10
67817;DHT22;54614;47.576;7.524;2023-12-22T05:40:22;21.50;53.10
67817;DHT22;54614;47.576;7.524;2023-12-22T05:42:48;21.50;53.20
67817;DHT22;54614;47.576;7.524;2023-12-22T05:45:15;21.50;53.20
67817;DHT22;54614;47.576;7.524;2023-12-22T05:47:41;21.40;53.10
67817;DHT22;54614;47.576;7.524;2023-12-22T05:50:07;21.40;53.00
67817;DHT22;54614;47.576;7.524;2023-12-22T05:52:33;21.40;52.90
67817;DHT22;54614;47.576;7.524;2023-12-22T05:54:59;21.50;54.60
67817;DHT22;54614;47.576;7.524;2023-12-22T05:57:25;21.50;54.30
67817;DHT22;54614;47.576;7.524;2023-12-22T05:59:51;21.50;54.40
67817;DHT22;54614;47.576;7.524;2023-12-22T06:02:18;21.50;54.10
67817;DHT22;54614;47.576;7.524;2023-12-22T06:04:43;21.50;53.80
67817;DHT22;54614;47.576;7.524;2023-12-22T06:07:10;21.50;53.70
67817;DHT22;54614;47.576;7.524;2023-12-22T06:09:36;21.60;53.50
67817;DHT22;54614;47.576;7.524;2023-12-22T06:12:02;21.50;53.40
67817;DHT22;54614;47.576;7.524;2023-12-22T06:14:28;21.50;53.20
67817;DHT22;54614;47.576;7.524;2023-12-22T06:16:54;21.60;53.20
67817;DHT22;54614;47.576;7.524;2023-12-22T06:19:23;21.50;53.40
67817;DHT22;54614;47.576;7.524;2023-12-22T06:21:50;21.60;53.20
67817;DHT22;54614;47.576;7.524;2023-12-22T06:24:16;21.60;53.70
67817;DHT22;54614;47.576;7.524;2023-12-22T06:26:42;21.60;54.80
67817;DHT22;54614;47.576;7.524;2023-12-22T06:29:08;21.50;58.90
67817;DHT22;54614;47.576;7.524;2023-12-22T06:31:34;21.50;59.10
67817;DHT22;54614;47.576;7.524;2023-12-22T06:34:00;21.50;58.60
67817;DHT22;54614;47.576;7.524;2023-12-22T06:36:28;21.50;57.10
67817;DHT22;54614;47.576;7.524;2023-12-22T06:38:55;21.60;55.30
67817;DHT22;54614;47.576;7.524;2023-12-22T06:41:25;21.70;55.20
67817;DHT22;54614;47.576;7.524;2023-12-22T06:43:53;21.70;54.90
67817;DHT22;54614;47.576;7.524;2023-12-22T06:46:23;21.80;56.70
67817;DHT22;54614;47.576;7.524;2023-12-22T06:48:53;21.70;56.00
67817;DHT22;54614;47.576;7.524;2023-12-22T06:51:22;21.80;54.70
67817;DHT22;54614;47.576;7.524;2023-12-22T06:53:49;21.90;54.50
67817;DHT22;54614;47.576;7.524;2023-12-22T06:56:23;21.90;54.30
67817;DHT22;54614;47.576;7.524;2023-12-22T06:58:51;21.90;54.10
67817;DHT22;54614;47.576;7.524;2023-12-22T07:03:56;22.00;54.10
67817;DHT22;54614;47.576;7.524;2023-12-22T07:06:24;22.00;54.10
67817;DHT22;54614;47.576;7.524;2023-12-22T07:11:39;21.90;65.00
67817;DHT22;54614;47.576;7.524;2023-12-22T07:14:05;21.90;64.60
67817;DHT22;54614;47.576;7.524;2023-12-22T07:16:30;21.90;59.30
67817;DHT22;54614;47.576;7.524;2023-12-22T07:18:57;22.00;56.60
67817;DHT22;54614;47.576;7.524;2023-12-22T07:21:22;22.10;55.80
67817;DHT22;54614;47.576;7.524;2023-12-22T07:23:48;22.10;55.40
67817;DHT22;54614;47.576;7.524;2023-12-22T07:26:14;22.20;55.00
67817;DHT22;54614;47.576;7.524;2023-12-22T07:28:39;22.20;54.80
67817;DHT22;54614;47.576;7.524;2023-12-22T07:31:05;22.20;54.60
67817;DHT22;54614;47.576;7.524;2023-12-22T07:33:31;22.30;54.60
67817;DHT22;54614;47.576;7.524;2023-12-22T07:35:57;22.30;54.50
67817;DHT22;54614;47.576;7.524;2023-12-22T07:38:23;22.30;54.30
67817;DHT22;54614;47.576;7.524;2023-12-22T07:40:49;22.30;54.30
67817;DHT22;54614;47.576;7.524;2023-12-22T07:43:15;22.40;54.30
67817;DHT22;54614;47.576;7.524;2023-12-22T07:45:41;22.40;54.20
67817;DHT22;54614;47.576;7.524;2023-12-22T07:48:07;22.40;54.10
67817;DHT22;54614;47.576;7.524;2023-12-22T07:50:33;22.40;54.70
67817;DHT22;54614;47.576;7.524;2023-12-22T07:52:59;22.40;54.10
67817;DHT22;54614;47.576;7.524;2023-12-22T07:55:25;22.40;53.90
67817;DHT22;54614;47.576;7.524;2023-12-22T07:57:51;22.50;53.80
67817;DHT22;54614;47.576;7.524;2023-12-22T08:00:17;22.50;53.70
67817;DHT22;54614;47.576;7.524;2023-12-22T08:02:44;22.50;53.60
67817;DHT22;54614;47.576;7.524;2023-12-22T08:05:11;22.50;53.60
67817;DHT22;54614;47.576;7.524;2023-12-22T08:07:38;22.50;53.50
67817;DHT22;54614;47.576;7.524;2023-12-22T08:10:04;22.60;53.50
67817;DHT22;54614;47.576;7.524;2023-12-22T08:12:31;22.60;53.40
67817;DHT22;54614;47.576;7.524;2023-12-22T08:14:58;22.60;53.40
67817;DHT22;54614;47.576;7.524;2023-12-22T08:17:24;22.60;54.10
67817;DHT22;54614;47.576;7.524;2023-12-22T08:19:50;22.60;53.40
67817;DHT22;54614;47.576;7.524;2023-12-22T08:22:15;22.60;53.40
67817;DHT22;54614;47.576;7.524;2023-12-22T08:24:41;22.60;53.40
67817;DHT22;54614;47.576;7.524;2023-12-22T08:27:08;22.60;53.40
67817;DHT22;54614;47.576;7.524;2023-12-22T08:29:34;22.60;53.40
67817;DHT22;54614;47.576;7.524;2023-12-22T08:32:00;22.60;53.40
67817;DHT22;54614;47.576;7.524;2023-12-22T08:34:29;22.60;53.40
67817;DHT22;54614;47.576;7.524;2023-12-22T08:36:55;22.60;53.40
67817;DHT22;54614;47.576;7.524;2023-12-22T08:39:20;22.60;53.40
67817;DHT22;54614;47.576;7.524;2023-12-22T08:41:47;22.60;53.30
67817;DHT22;54614;47.576;7.524;2023-12-22T08:44:13;22.60;53.30
67817;DHT22;54614;47.576;7.524;2023-12-22T08:46:42;22.60;53.30
67817;DHT22;54614;47.576;7.524;2023-12-22T08:49:08;22.60;53.30
67817;DHT22;54614;47.576;7.524;2023-12-22T08:51:43;22.60;53.30
67817;DHT22;54614;47.576;7.524;2023-12-22T08:54:09;22.60;53.20
67817;DHT22;54614;47.576;7.524;2023-12-22T08:56:34;22.60;53.10
67817;DHT22;54614;47.576;7.524;2023-12-22T08:59:00;22.60;53.00
67817;DHT22;54614;47.576;7.524;2023-12-22T09:01:26;22.60;53.00
67817;DHT22;54614;47.576;7.524;2023-12-22T09:03:52;22.60;53.00
67817;DHT22;54614;47.576;7.524;2023-12-22T09:06:22;22.60;53.00
67817;DHT22;54614;47.576;7.524;2023-12-22T09:08:50;22.60;52.90
67817;DHT22;54614;47.576;7.524;2023-12-22T09:11:17;22.60;52.90
67817;DHT22;54614;47.576;7.524;2023-12-22T09:13:43;22.60;52.90
67817;DHT22;54614;47.576;7.524;2023-12-22T09:16:10;22.60;52.90
67817;DHT22;54614;47.576;7.524;2023-12-22T09:18:36;22.60;52.90
67817;DHT22;54614;47.576;7.524;2023-12-22T09:21:02;22.50;53.00
67817;DHT22;54614;47.576;7.524;2023-12-22T09:23:29;22.60;52.90
67817;DHT22;54614;47.576;7.524;2023-12-22T09:25:55;22.60;52.80
67817;DHT22;54614;47.576;7.524;2023-12-22T09:28:21;22.60;52.80
67817;DHT22;54614;47.576;7.524;2023-12-22T09:30:46;22.50;52.80
67817;DHT22;54614;47.576;7.524;2023-12-22T09:33:12;22.50;52.90
67817;DHT22;54614;47.576;7.524;2023-12-22T09:35:38;22.50;52.80
67817;DHT22;54614;47.576;7.524;2023-12-22T09:38:10;22.50;52.90
67817;DHT22;54614;47.576;7.524;2023-12-22T09:40:38;22.50;52.80
67817;DHT22;54614;47.576;7.524;2023-12-22T09:43:06;22.50;52.90
67817;DHT22;54614;47.576;7.524;2023-12-22T09:45:33;22.50;52.90
67817;DHT22;54614;47.576;7.524;2023-12-22T09:48:00;22.50;53.00
67817;DHT22;54614;47.576;7.524;2023-12-22T09:50:30;22.50;53.00
67817;DHT22;54614;47.576;7.524;2023-12-22T09:52:56;22.50;53.00
67817;DHT22;54614;47.576;7.524;2023-12-22T09:55:23;22.50;53.10
67817;DHT22;54614;47.576;7.524;2023-12-22T09:57:51;22.50;53.10
67817;DHT22;54614;47.576;7.524;2023-12-22T10:00:18;22.50;53.10
67817;DHT22;54614;47.576;7.524;2023-12-22T10:02:44;22.50;53.10
67817;DHT22;54614;47.576;7.524;2023-12-22T10:05:11;22.50;53.00
67817;DHT22;54614;47.576;7.524;2023-12-22T10:07:45;22.50;53.00
67817;DHT22;54614;47.576;7.524;2023-12-22T10:10:13;22.50;53.10
67817;DHT22;54614;47.576;7.524;2023-12-22T10:12:41;22.50;53.10
67817;DHT22;54614;47.576;7.524;2023-12-22T10:15:11;22.40;53.20
67817;DHT22;54614;47.576;7.524;2023-12-22T10:17:38;22.40;53.30
67817;DHT22;54614;47.576;7.524;2023-12-22T10:20:05;22.40;53.40
67817;DHT22;54614;47.576;7.524;2023-12-22T10:22:32;22.40;53.50
67817;DHT22;54614;47.576;7.524;2023-12-22T10:24:57;22.40;53.50
67817;DHT22;54614;47.576;7.524;2023-12-22T10:27:23;22.40;53.60
67817;DHT22;54614;47.576;7.524;2023-12-22T10:29:50;22.40;53.80
67817;DHT22;54614;47.576;7.524;2023-12-22T10:32:18;22.40;53.70
67817;DHT22;54614;47.576;7.524;2023-12-22T10:34:45;22.30;53.80
67817;DHT22;54614;47.576;7.524;2023-12-22T10:37:11;22.30;53.90
67817;DHT22;54614;47.576;7.524;2023-12-22T10:39:40;22.30;54.10
67817;DHT22;54614;47.576;7.524;2023-12-22T10:42:06;22.20;54.20
67817;DHT22;54614;47.576;7.524;2023-12-22T10:44:33;22.20;55.00
67817;DHT22;54614;47.576;7.524;2023-12-22T10:47:00;22.00;55.20
67817;DHT22;54614;47.576;7.524;2023-12-22T10:49:26;22.10;54.60
67817;DHT22;54614;47.576;7.524;2023-12-22T10:51:52;22.10;54.50
67817;DHT22;54614;47.576;7.524;2023-12-22T10:54:19;22.20;54.40
67817;DHT22;54614;47.576;7.524;2023-12-22T10:56:45;22.20;54.10
67817;DHT22;54614;47.576;7.524;2023-12-22T10:59:11;22.20;54.10
67817;DHT22;54614;47.576;7.524;2023-12-22T11:01:38;22.20;53.90
67817;DHT22;54614;47.576;7.524;2023-12-22T11:04:08;22.20;53.80
67817;DHT22;54614;47.576;7.524;2023-12-22T11:06:41;22.20;53.80
67817;DHT22;54614;47.576;7.524;2023-12-22T11:09:10;22.20;53.70
67817;DHT22;54614;47.576;7.524;2023-12-22T11:11:38;22.20;53.80
67817;DHT22;54614;47.576;7.524;2023-12-22T11:14:05;22.20;53.80
67817;DHT22;54614;47.576;7.524;2023-12-22T11:16:33;22.20;53.70
67817;DHT22;54614;47.576;7.524;2023-12-22T11:19:02;22.20;53.80
67817;DHT22;54614;47.576;7.524;2023-12-22T11:21:29;22.20;53.80
67817;DHT22;54614;47.576;7.524;2023-12-22T11:23:56;22.10;54.20
67817;DHT22;54614;47.576;7.524;2023-12-22T11:26:24;22.10;54.00
67817;DHT22;54614;47.576;7.524;2023-12-22T11:28:52;22.00;54.80
67817;DHT22;54614;47.576;7.524;2023-12-22T11:31:18;21.90;55.00
67817;DHT22;54614;47.576;7.524;2023-12-22T11:33:50;21.80;55.30
67817;DHT22;54614;47.576;7.524;2023-12-22T11:36:17;21.90;54.80
67817;DHT22;54614;47.576;7.524;2023-12-22T11:38:45;22.00;54.20
67817;DHT22;54614;47.576;7.524;2023-12-22T11:41:16;22.10;54.00
67817;DHT22;54614;47.576;7.524;2023-12-22T11:43:45;22.10;53.80
67817;DHT22;54614;47.576;7.524;2023-12-22T11:46:12;22.10;53.80
67817;DHT22;54614;47.576;7.524;2023-12-22T11:48:49;22.20;53.70
67817;DHT22;54614;47.576;7.524;2023-12-22T11:51:16;22.20;53.60
67817;DHT22;54614;47.576;7.524;2023-12-22T11:53:43;22.30;53.60
67817;DHT22;54614;47.576;7.524;2023-12-22T11:56:10;22.30;53.60
67817;DHT22;54614;47.576;7.524;2023-12-22T12:01:17;22.30;53.60
67817;DHT22;54614;47.576;7.524;2023-12-22T12:03:56;22.30;53.70
67817;DHT22;54614;47.576;7.524;2023-12-22T12:08:54;22.30;53.70
67817;DHT22;54614;47.576;7.524;2023-12-22T12:11:21;22.40;53.80
67817;DHT22;54614;47.576;7.524;2023-12-22T12:13:49;22.40;53.80
67817;DHT22;54614;47.576;7.524;2023-12-22T12:16:20;22.40;53.80
67817;DHT22;54614;47.576;7.524;2023-12-22T12:18:50;22.40;53.90
67817;DHT22;54614;47.576;7.524;2023-12-22T12:21:18;22.40;54.00
67817;DHT22;54614;47.576;7.524;2023-12-22T12:23:44;22.30;53.90
67817;DHT22;54614;47.576;7.524;2023-12-22T12:26:11;22.40;54.00
67817;DHT22;54614;47.576;7.524;2023-12-22T12:28:38;22.40;54.00
67817;DHT22;54614;47.576;7.524;2023-12-22T12:31:05;22.40;54.10
67817;DHT22;54614;47.576;7.524;2023-12-22T12:33:32;22.40;54.30
67817;DHT22;54614;47.576;7.524;2023-12-22T12:36:00;22.40;54.30
67817;DHT22;54614;47.576;7.524;2023-12-22T12:41:51;22.40;54.30
67817;DHT22;54614;47.576;7.524;2023-12-22T12:44:20;22.50;54.20
67817;DHT22;54614;47.576;7.524;2023-12-22T12:46:48;22.50;55.10
67817;DHT22;54614;47.576;7.524;2023-12-22T12:49:14;22.40;54.50
67817;DHT22;54614;47.576;7.524;2023-12-22T12:51:47;22.50;54.40
67817;DHT22;54614;47.576;7.524;2023-12-22T12:54:14;22.50;54.30
67817;DHT22;54614;47.576;7.524;2023-12-22T12:56:45;22.60;54.30
67817;DHT22;54614;47.576;7.524;2023-12-22T12:59:16;22.60;54.30
67817;DHT22;54614;47.576;7.524;2023-12-22T13:01:46;22.60;54.30
67817;DHT22;54614;47.576;7.524;2023-12-22T13:04:13;22.70;54.20
67817;DHT22;54614;47.576;7.524;2023-12-22T13:06:46;22.70;54.20
67817;DHT22;54614;47.576;7.524;2023-12-22T13:09:13;22.70;54.20
67817;DHT22;54614;47.576;7.524;2023-12-22T13:11:40;22.80;54.20
67817;DHT22;54614;47.576;7.524;2023-12-22T13:14:12;22.90;54.20
67817;DHT22;54614;47.576;7.524;2023-12-22T13:16:47;22.90;54.10
67817;DHT22;54614;47.576;7.524;2023-12-22T13:19:13;22.90;54.40
67817;DHT22;54614;47.576;7.524;2023-12-22T13:21:39;22.90;54.20
67817;DHT22;54614;47.576;7.524;2023-12-22T13:24:11;23.00;54.30
67817;DHT22;54614;47.576;7.524;2023-12-22T13:26:39;23.00;54.20
67817;DHT22;54614;47.576;7.524;2023-12-22T13:29:06;23.00;54.30
67817;DHT22;54614;47.576;7.524;2023-12-22T13:31:35;23.00;54.10
67817;DHT22;54614;47.576;7.524;2023-12-22T13:34:03;23.10;53.90
67817;DHT22;54614;47.576;7.524;2023-12-22T13:36:37;23.10;53.80
67817;DHT22;54614;47.576;7.524;2023-12-22T13:39:07;23.10;53.70
67817;DHT22;54614;47.576;7.524;2023-12-22T13:41:42;23.20;53.70
67817;DHT22;54614;47.576;7.524;2023-12-22T13:44:13;23.10;54.20
67817;DHT22;54614;47.576;7.524;2023-12-22T13:46:40;23.20;53.70
67817;DHT22;54614;47.576;7.524;2023-12-22T13:49:10;23.10;53.70
67817;DHT22;54614;47.576;7.524;2023-12-22T13:51:44;23.20;53.80
67817;DHT22;54614;47.576;7.524;2023-12-22T13:54:10;23.10;53.70
67817;DHT22;54614;47.576;7.524;2023-12-22T13:56:37;23.10;53.60
67817;DHT22;54614;47.576;7.524;2023-12-22T13:59:06;23.10;53.60
67817;DHT22;54614;47.576;7.524;2023-12-22T14:01:32;23.10;53.50
67817;DHT22;54614;47.576;7.524;2023-12-22T14:03:59;23.10;53.40
67817;DHT22;54614;47.576;7.524;2023-12-22T14:06:28;23.10;53.30
67817;DHT22;54614;47.576;7.524;2023-12-22T14:08:55;23.10;53.20
67817;DHT22;54614;47.576;7.524;2023-12-22T14:11:22;23.00;53.20
67817;DHT22;54614;47.576;7.524;2023-12-22T14:13:48;23.00;53.10
67817;DHT22;54614;47.576;7.524;2023-12-22T14:16:15;23.00;53.70
67817;DHT22;54614;47.576;7.524;2023-12-22T14:18:41;23.00;53.10
67817;DHT22;54614;47.576;7.524;2023-12-22T14:21:08;23.00;53.20
67817;DHT22;54614;47.576;7.524;2023-12-22T14:23:33;23.00;53.40
67817;DHT22;54614;47.576;7.524;2023-12-22T14:25:59;23.00;53.40
67817;DHT22;54614;47.576;7.524;2023-12-22T14:28:25;23.00;53.40
67817;DHT22;54614;47.576;7.524;2023-12-22T14:30:51;23.10;53.50
67817;DHT22;54614;47.576;7.524;2023-12-22T14:33:16;23.10;53.60
67817;DHT22;54614;47.576;7.524;2023-12-22T14:35:42;23.00;53.70
67817;DHT22;54614;47.576;7.524;2023-12-22T14:38:08;23.00;53.70
67817;DHT22;54614;47.576;7.524;2023-12-22T14:40:34;23.10;53.80
67817;DHT22;54614;47.576;7.524;2023-12-22T14:43:00;23.00;53.60
67817;DHT22;54614;47.576;7.524;2023-12-22T14:45:27;23.00;53.50
67817;DHT22;54614;47.576;7.524;2023-12-22T14:47:53;23.00;53.50
67817;DHT22;54614;47.576;7.524;2023-12-22T14:50:19;23.00;53.50
67817;DHT22;54614;47.576;7.524;2023-12-22T14:52:45;23.00;53.50
67817;DHT22;54614;47.576;7.524;2023-12-22T14:55:11;23.00;53.50
67817;DHT22;54614;47.576;7.524;2023-12-22T14:57:37;23.00;53.50
67817;DHT22;54614;47.576;7.524;2023-12-22T15:00:04;23.00;53.90
67817;DHT22;54614;47.576;7.524;2023-12-22T15:02:31;23.00;53.60
67817;DHT22;54614;47.576;7.524;2023-12-22T15:04:57;23.00;53.70
67817;DHT22;54614;47.576;7.524;2023-12-22T15:07:22;22.90;53.70
67817;DHT22;54614;47.576;7.524;2023-12-22T15:09:48;23.00;53.80
67817;DHT22;54614;47.576;7.524;2023-12-22T15:12:15;23.00;53.60
67817;DHT22;54614;47.576;7.524;2023-12-22T15:14:44;22.90;53.70
67817;DHT22;54614;47.576;7.524;2023-12-22T15:17:11;22.90;53.80
67817;DHT22;54614;47.576;7.524;2023-12-22T15:19:43;22.90;53.70
67817;DHT22;54614;47.576;7.524;2023-12-22T15:22:10;23.00;53.70
67817;DHT22;54614;47.576;7.524;2023-12-22T15:24:45;23.00;53.70
67817;DHT22;54614;47.576;7.524;2023-12-22T15:27:11;23.00;53.60
67817;DHT22;54614;47.576;7.524;2023-12-22T15:29:38;23.00;53.60
67817;DHT22;54614;47.576;7.524;2023-12-22T15:32:04;23.00;53.50
67817;DHT22;54614;47.576;7.524;2023-12-22T15:34:30;23.00;53.50
67817;DHT22;54614;47.576;7.524;2023-12-22T15:36:56;22.90;53.50
67817;DHT22;54614;47.576;7.524;2023-12-22T15:39:23;22.90;53.60
67817;DHT22;54614;47.576;7.524;2023-12-22T15:41:49;22.90;53.70
67817;DHT22;54614;47.576;7.524;2023-12-22T15:44:15;22.90;53.80
67817;DHT22;54614;47.576;7.524;2023-12-22T15:46:41;22.90;53.80
67817;DHT22;54614;47.576;7.524;2023-12-22T15:49:06;22.90;53.80